Aérodrome :
LOGIN :

S'inscrire | Disclaimer

   EN    FR    IT 

 










Légende :    VFR   VFR Marginal   IFR   IFR Intensif   IFR Très Intensif
Visi : 
Plafond : 
>= 8 km
>= 3000ft
5 à 8 km
1000 à 3000 ft
1500m à 5 km
500 à 1000 ft
800 à 1500m
200 à 500 ft
< 800m
< 200 ft
Symboles :   Orages  Brouillard  Fortes neiges  Fortes précipitations  Vent > 20 kt
SIGMETs :   Divers  Orages  Givrage  Turbulence  Onde Orograph.  Cendres Volcan.






- Altitude de l'aérodrome : 408 ft
- Code IATA : SOB


LHSM - Sarmellek Balaton

DERNIER METAR :
  • 140845Z AUTO 31004KT CAVOK 05/04 Q1012 NOSIG

METARs EXPIRÉS :
  • 140815Z AUTO 32004KT CAVOK 04/03 Q1012 NOSIG
  • 140745Z AUTO 32004KT 290V350 CAVOK 03/02 Q1012 NOSIG
  • 140715Z AUTO VRB02KT 8000 NCD 02/02 Q1012 TEMPO 3000 BR
  • 140645Z AUTO 31003KT 6000 FEW002 01/01 Q1012 TEMPO 3000 BR SCT005
  • 140615Z AUTO 31004KT 2100 BR VV001 M00/M00 Q1012

TAF TAF LHSM
Valide du 14 à 09h jusqu'au 14 à 18h UTC


140815Z 1409/1418 33004KT CAVOK
TEMPO 1409/1415 SCT033
BECMG 1411/1414 12005KT



MET'MAP, la Météo Aéronautique d'un coup d'oeil ! - Copyright ORBIFLY Décembre 2007 - Disclaimer

ORBIFLY MET'MAP TEAM :

Programmation & Développement : Alexandra Zaïnal
Conception & Développement : Baudouin d'Aumeries
Co-Programmation & Développement : Marc-Olivier Méhu
Soutien technique & logistique : Manuel Goepfert

Contact : metmap@orbifly.com




SOURCES & CREDITS :

   NOAA